createdAt,value
2018-12-04T00:00:32.669Z,986.92
2018-12-04T00:01:32.690Z,986.91
2018-12-04T00:02:32.716Z,986.93
2018-12-04T00:03:32.732Z,986.97
2018-12-04T00:04:32.754Z,987
2018-12-04T00:05:32.775Z,986.97
2018-12-04T00:06:32.795Z,987.07
2018-12-04T00:07:32.820Z,987.07
2018-12-04T00:08:32.835Z,987.09
2018-12-04T00:09:32.858Z,987.17
2018-12-04T00:10:32.878Z,987.23
2018-12-04T00:11:32.899Z,987.23
2018-12-04T00:12:32.920Z,987.24
2018-12-04T00:13:32.941Z,987.3
2018-12-04T00:14:32.960Z,987.32
2018-12-04T00:15:32.983Z,987.38
2018-12-04T00:16:33.001Z,987.39
2018-12-04T00:17:33.023Z,987.4
2018-12-04T00:18:33.046Z,987.47
2018-12-04T00:19:33.069Z,987.46
2018-12-04T00:20:33.089Z,987.51
2018-12-04T00:21:33.107Z,987.55
2018-12-04T00:22:33.132Z,987.57
2018-12-04T00:23:33.149Z,987.59
2018-12-04T00:24:33.169Z,987.64
2018-12-04T00:25:33.197Z,987.69
2018-12-04T00:26:33.216Z,987.74
2018-12-04T00:27:33.235Z,987.77
2018-12-04T00:28:33.256Z,987.86
2018-12-04T00:29:33.275Z,987.89
2018-12-04T00:30:33.295Z,987.89
2018-12-04T00:31:33.317Z,987.95
2018-12-04T00:32:33.336Z,987.95
2018-12-04T00:33:33.357Z,987.99
2018-12-04T00:34:33.377Z,988.09
2018-12-04T00:35:33.400Z,988.15
2018-12-04T00:36:33.420Z,988.37
2018-12-04T00:37:33.442Z,988.34
2018-12-04T00:38:33.462Z,988.39
2018-12-04T00:39:33.483Z,988.48
2018-12-04T00:40:33.505Z,988.64
2018-12-04T00:41:33.527Z,988.65
2018-12-04T00:42:33.546Z,988.76
2018-12-04T00:43:33.565Z,988.7
2018-12-04T00:44:33.587Z,988.79
2018-12-04T00:45:33.611Z,988.81
2018-12-04T00:46:33.628Z,988.88
2018-12-04T00:47:33.650Z,988.91
2018-12-04T00:48:33.674Z,988.94
2018-12-04T00:49:33.695Z,988.98
2018-12-04T00:50:33.712Z,988.99
2018-12-04T00:51:33.732Z,989.05
2018-12-04T00:52:33.756Z,989.12
2018-12-04T00:53:33.778Z,989.17
2018-12-04T00:54:33.799Z,989.17
2018-12-04T00:55:33.817Z,989.14
2018-12-04T00:56:33.844Z,989.21
2018-12-04T00:57:33.857Z,989.21
2018-12-04T00:58:33.879Z,989.26
2018-12-04T00:59:33.898Z,989.29
2018-12-04T01:00:33.921Z,989.33
2018-12-04T01:01:33.941Z,989.38
2018-12-04T01:02:33.965Z,989.37
2018-12-04T01:03:33.986Z,989.38
2018-12-04T01:04:34.006Z,989.45
2018-12-04T01:05:34.025Z,989.45
2018-12-04T01:06:34.045Z,989.52
2018-12-04T01:07:34.065Z,989.6
2018-12-04T01:08:34.086Z,989.62
2018-12-04T01:09:34.106Z,989.67
2018-12-04T01:10:34.127Z,989.66
2018-12-04T01:11:34.148Z,989.73
2018-12-04T01:12:34.169Z,989.74
2018-12-04T01:13:34.191Z,989.76
2018-12-04T01:14:34.210Z,989.77
2018-12-04T01:15:34.229Z,989.8
2018-12-04T01:16:34.251Z,989.86
2018-12-04T01:17:34.281Z,989.9
2018-12-04T01:18:34.294Z,989.9
2018-12-04T01:19:34.314Z,989.96
2018-12-04T01:20:34.337Z,990.04
2018-12-04T01:21:34.355Z,990.09
2018-12-04T01:22:34.376Z,990.11
2018-12-04T01:23:34.398Z,990.15
2018-12-04T01:24:34.419Z,990.16
2018-12-04T01:25:34.437Z,990.16
2018-12-04T01:26:34.460Z,990.21
2018-12-04T01:27:34.481Z,990.27
2018-12-04T01:28:34.505Z,990.28
2018-12-04T01:29:34.522Z,990.34
2018-12-04T01:30:34.542Z,990.38
2018-12-04T01:31:34.563Z,990.43
2018-12-04T01:32:34.583Z,990.42
2018-12-04T01:33:34.603Z,990.47
2018-12-04T01:34:34.625Z,990.48
2018-12-04T01:35:34.647Z,990.56
2018-12-04T01:36:34.667Z,990.58
2018-12-04T01:37:34.689Z,990.58
2018-12-04T01:38:34.708Z,990.64
2018-12-04T01:39:34.730Z,990.65
2018-12-04T01:40:34.751Z,990.67
2018-12-04T01:41:34.770Z,990.75
2018-12-04T01:42:34.790Z,990.74
2018-12-04T01:43:34.810Z,990.78
2018-12-04T01:44:34.832Z,990.83
2018-12-04T01:45:34.854Z,990.82
2018-12-04T01:46:34.874Z,990.81
2018-12-04T01:47:34.893Z,990.86
2018-12-04T01:48:34.921Z,990.85
2018-12-04T01:49:34.935Z,990.86
2018-12-04T01:50:34.955Z,990.87
2018-12-04T01:51:34.975Z,990.94
2018-12-04T01:52:34.998Z,990.97
2018-12-04T01:53:35.017Z,990.98
2018-12-04T01:54:35.038Z,991.01
2018-12-04T01:55:35.059Z,991.05
2018-12-04T01:56:35.083Z,991.12
2018-12-04T01:57:35.102Z,991.15
2018-12-04T01:58:35.123Z,991.15
2018-12-04T01:59:35.151Z,991.21
2018-12-04T02:00:35.161Z,991.27
2018-12-04T02:01:35.188Z,991.32
2018-12-04T02:02:35.203Z,991.37
2018-12-04T02:03:35.223Z,991.42
2018-12-04T02:04:35.243Z,991.44
2018-12-04T02:05:35.268Z,991.46
2018-12-04T02:06:35.286Z,991.45
2018-12-04T02:07:35.307Z,991.46
2018-12-04T02:08:35.331Z,991.51
2018-12-04T02:09:35.347Z,991.5
2018-12-04T02:10:35.369Z,991.51
2018-12-04T02:11:35.392Z,991.52
2018-12-04T02:12:35.410Z,991.58
2018-12-04T02:13:35.429Z,991.67
2018-12-04T02:14:35.450Z,991.66
2018-12-04T02:15:35.471Z,991.74
2018-12-04T02:16:35.492Z,991.75
2018-12-04T02:17:35.512Z,991.75
2018-12-04T02:18:35.533Z,991.83
2018-12-04T02:19:35.556Z,991.83
2018-12-04T02:20:35.573Z,991.82
2018-12-04T02:21:35.593Z,991.88
2018-12-04T02:22:35.616Z,991.91
2018-12-04T02:23:35.640Z,991.92
2018-12-04T02:24:35.659Z,991.91
2018-12-04T02:25:35.677Z,991.97
2018-12-04T02:26:35.701Z,991.95
2018-12-04T02:27:35.717Z,992
2018-12-04T02:28:35.740Z,992.03
2018-12-04T02:29:35.760Z,992.03
2018-12-04T02:30:35.793Z,992.07
2018-12-04T02:31:35.800Z,992.09
2018-12-04T02:32:35.826Z,992.07
2018-12-04T02:33:35.847Z,992.12
2018-12-04T02:34:35.867Z,992.13
2018-12-04T02:35:35.883Z,992.14
2018-12-04T02:36:35.902Z,992.15
2018-12-04T02:37:35.923Z,992.16
2018-12-04T02:38:35.942Z,992.21
2018-12-04T02:39:35.964Z,992.26
2018-12-04T02:40:35.989Z,992.28
2018-12-04T02:41:36.007Z,992.28
2018-12-04T02:42:36.025Z,992.33
2018-12-04T02:43:36.050Z,992.34
2018-12-04T02:44:36.068Z,992.39
2018-12-04T02:45:36.089Z,992.37
2018-12-04T02:46:36.111Z,992.43
2018-12-04T02:47:36.126Z,992.47
2018-12-04T02:48:36.149Z,992.54
2018-12-04T02:49:36.172Z,992.51
2018-12-04T02:50:36.193Z,992.56
2018-12-04T02:51:36.214Z,992.59
2018-12-04T02:52:36.235Z,992.58
2018-12-04T02:53:36.255Z,992.61
2018-12-04T02:54:36.271Z,992.59
2018-12-04T02:55:36.294Z,992.64
2018-12-04T02:56:36.313Z,992.7
2018-12-04T02:57:36.337Z,992.7
2018-12-04T02:58:36.355Z,992.69
2018-12-04T02:59:36.381Z,992.8
2018-12-04T03:00:36.399Z,992.78
2018-12-04T03:01:36.417Z,992.84
2018-12-04T03:02:36.436Z,992.91
2018-12-04T03:03:36.465Z,992.89
2018-12-04T03:04:36.475Z,992.92
2018-12-04T03:05:36.502Z,992.97
2018-12-04T03:06:36.522Z,993.01
2018-12-04T03:07:36.539Z,993.05
2018-12-04T03:08:36.564Z,993.02
2018-12-04T03:09:36.584Z,993.08
2018-12-04T03:10:36.604Z,993.07
2018-12-04T03:11:36.620Z,993.07
2018-12-04T03:12:36.642Z,993.07
2018-12-04T03:13:36.662Z,993.09
2018-12-04T03:14:36.682Z,993.15
2018-12-04T03:15:36.701Z,993.17
2018-12-04T03:16:36.719Z,993.21
2018-12-04T03:17:36.745Z,993.21
2018-12-04T03:18:36.762Z,993.26
2018-12-04T03:19:36.784Z,993.26
2018-12-04T03:20:36.804Z,993.29
2018-12-04T03:21:36.824Z,993.28
2018-12-04T03:22:36.851Z,993.33
2018-12-04T03:23:36.865Z,993.36
2018-12-04T03:24:36.885Z,993.44
2018-12-04T03:25:36.914Z,993.44
2018-12-04T03:26:36.926Z,993.46
2018-12-04T03:27:36.954Z,993.47
2018-12-04T03:28:36.969Z,993.51
2018-12-04T03:29:36.991Z,993.57
2018-12-04T03:30:37.009Z,993.59
2018-12-04T03:31:37.033Z,993.62
2018-12-04T03:32:37.050Z,993.64
2018-12-04T03:33:37.071Z,993.64
2018-12-04T03:34:37.090Z,993.65
2018-12-04T03:35:37.110Z,993.63
2018-12-04T03:36:37.131Z,993.66
2018-12-04T03:37:37.151Z,993.66
2018-12-04T03:38:37.170Z,993.67
2018-12-04T03:39:37.192Z,993.7
2018-12-04T03:40:37.217Z,993.71
2018-12-04T03:41:37.232Z,993.83
2018-12-04T03:42:37.253Z,993.8
2018-12-04T03:43:37.273Z,993.81
2018-12-04T03:44:37.294Z,993.82
2018-12-04T03:45:37.314Z,993.84
2018-12-04T03:46:37.336Z,993.86
2018-12-04T03:47:37.354Z,993.92
2018-12-04T03:48:37.373Z,993.93
2018-12-04T03:49:37.397Z,993.91
2018-12-04T03:50:37.415Z,993.96
2018-12-04T03:51:37.438Z,993.99
2018-12-04T03:52:37.455Z,994.03
2018-12-04T03:53:37.476Z,994.05
2018-12-04T03:54:37.497Z,993.99
2018-12-04T03:55:37.520Z,994.08
2018-12-04T03:56:37.537Z,994.11
2018-12-04T03:57:37.557Z,994.13
2018-12-04T03:58:37.578Z,994.12
2018-12-04T03:59:37.597Z,994.09
2018-12-04T04:00:37.623Z,994.15
2018-12-04T04:01:37.639Z,994.16
2018-12-04T04:02:37.657Z,994.18
2018-12-04T04:03:37.681Z,994.18
2018-12-04T04:04:37.701Z,994.26
2018-12-04T04:05:37.719Z,994.25
2018-12-04T04:06:37.747Z,994.27
2018-12-04T04:07:37.764Z,994.24
2018-12-04T04:08:37.784Z,994.38
2018-12-04T04:09:37.806Z,994.33
2018-12-04T04:10:37.821Z,994.36
2018-12-04T04:11:37.851Z,994.38
2018-12-04T04:12:37.861Z,994.4
2018-12-04T04:13:37.905Z,994.33
2018-12-04T04:14:37.901Z,994.33
2018-12-04T04:15:37.925Z,994.38
2018-12-04T04:16:37.947Z,994.37
2018-12-04T04:17:37.967Z,994.38
2018-12-04T04:18:37.986Z,994.4
2018-12-04T04:19:38.002Z,994.34
2018-12-04T04:20:38.027Z,994.4
2018-12-04T04:21:38.041Z,994.4
2018-12-04T04:22:38.064Z,994.42
2018-12-04T04:23:38.083Z,994.42
2018-12-04T04:24:38.103Z,994.45
2018-12-04T04:25:38.126Z,994.53
2018-12-04T04:26:38.144Z,994.5
2018-12-04T04:27:38.164Z,994.53
2018-12-04T04:28:38.187Z,994.56
2018-12-04T04:29:38.205Z,994.55
2018-12-04T04:30:38.226Z,994.57
2018-12-04T04:31:38.245Z,994.62
2018-12-04T04:32:38.268Z,994.61
2018-12-04T04:33:38.287Z,994.6
2018-12-04T04:34:38.308Z,994.64
2018-12-04T04:35:38.330Z,994.65
2018-12-04T04:36:38.347Z,994.67
2018-12-04T04:37:38.367Z,994.7
2018-12-04T04:38:38.391Z,994.73
2018-12-04T04:39:38.408Z,994.69
2018-12-04T04:40:38.428Z,994.75
2018-12-04T04:41:38.453Z,994.74
2018-12-04T04:42:38.477Z,994.74
2018-12-04T04:43:38.491Z,994.82
2018-12-04T04:44:38.511Z,994.82
2018-12-04T04:45:38.530Z,994.82
2018-12-04T04:46:38.554Z,994.83
2018-12-04T04:47:38.571Z,994.85
2018-12-04T04:48:38.604Z,994.87
2018-12-04T04:49:38.613Z,994.93
2018-12-04T04:50:38.632Z,994.96
2018-12-04T04:51:38.652Z,995.01
2018-12-04T04:52:38.672Z,995.07
2018-12-04T04:53:38.692Z,995.11
2018-12-04T04:54:38.717Z,995.14
2018-12-04T04:55:38.733Z,995.15
2018-12-04T04:56:38.753Z,995.16
2018-12-04T04:57:38.773Z,995.18
2018-12-04T04:58:38.793Z,995.17
2018-12-04T04:59:38.817Z,995.18
2018-12-04T05:00:38.836Z,995.18
2018-12-04T05:01:38.854Z,995.21
2018-12-04T05:02:38.872Z,995.22
2018-12-04T05:03:38.895Z,995.33
2018-12-04T05:04:38.913Z,995.36
2018-12-04T05:05:38.933Z,995.38
2018-12-04T05:06:38.960Z,995.39
2018-12-04T05:07:38.977Z,995.43
2018-12-04T05:08:38.995Z,995.45
2018-12-04T05:09:39.015Z,995.48
2018-12-04T05:10:39.035Z,995.52
2018-12-04T05:11:39.057Z,995.55
2018-12-04T05:12:39.075Z,995.53
2018-12-04T05:13:39.101Z,995.59
2018-12-04T05:14:39.119Z,995.57
2018-12-04T05:15:39.138Z,995.54
2018-12-04T05:16:39.155Z,995.55
2018-12-04T05:17:39.176Z,995.6
2018-12-04T05:18:39.203Z,995.61
2018-12-04T05:19:39.217Z,995.63
2018-12-04T05:20:39.238Z,995.65
2018-12-04T05:21:39.258Z,995.67
2018-12-04T05:22:39.278Z,995.71
2018-12-04T05:23:39.298Z,995.71
2018-12-04T05:24:39.317Z,995.78
2018-12-04T05:25:39.339Z,995.77
2018-12-04T05:26:39.357Z,995.78
2018-12-04T05:27:39.378Z,995.77
2018-12-04T05:28:39.399Z,995.81
2018-12-04T05:29:39.424Z,995.81
2018-12-04T05:30:39.439Z,995.78
2018-12-04T05:31:39.463Z,995.79
2018-12-04T05:32:39.483Z,995.82
2018-12-04T05:33:39.510Z,995.84
2018-12-04T05:34:39.524Z,995.86
2018-12-04T05:35:39.548Z,995.94
2018-12-04T05:36:39.565Z,995.92
2018-12-04T05:37:39.580Z,995.94
2018-12-04T05:38:39.603Z,995.9
2018-12-04T05:39:39.620Z,995.93
2018-12-04T05:40:39.641Z,995.92
2018-12-04T05:41:39.659Z,995.92
2018-12-04T05:42:39.681Z,995.95
2018-12-04T05:43:39.704Z,995.96
2018-12-04T05:44:39.721Z,995.94
2018-12-04T05:45:39.745Z,995.96
2018-12-04T05:46:39.763Z,995.99
2018-12-04T05:47:39.781Z,995.99
2018-12-04T05:48:39.808Z,996.03
2018-12-04T05:49:39.821Z,996.07
2018-12-04T05:50:39.847Z,996.08
2018-12-04T05:51:39.861Z,996.14
2018-12-04T05:52:39.885Z,996.11
2018-12-04T05:53:39.901Z,996.16
2018-12-04T05:54:39.921Z,996.21
2018-12-04T05:55:39.943Z,996.22
2018-12-04T05:56:39.961Z,996.24
2018-12-04T05:57:39.980Z,996.26
2018-12-04T05:58:40.006Z,996.29
2018-12-04T05:59:40.020Z,996.36
2018-12-04T06:00:40.042Z,996.39
2018-12-04T06:01:40.063Z,996.4
2018-12-04T06:02:40.082Z,996.42
2018-12-04T06:03:40.877Z,996.48
2018-12-04T06:04:40.125Z,996.47
2018-12-04T06:05:40.141Z,996.52
2018-12-04T06:06:40.162Z,996.51
2018-12-04T06:07:40.186Z,996.57
2018-12-04T06:08:40.206Z,996.6
2018-12-04T06:09:40.225Z,996.59
2018-12-04T06:10:40.246Z,996.64
2018-12-04T06:11:40.263Z,996.66
2018-12-04T06:12:40.286Z,996.64
2018-12-04T06:13:40.307Z,996.67
2018-12-04T06:14:40.328Z,996.71
2018-12-04T06:15:40.342Z,996.75
2018-12-04T06:16:40.367Z,996.76
2018-12-04T06:17:40.386Z,996.78
2018-12-04T06:18:40.406Z,996.8
2018-12-04T06:19:40.423Z,996.8
2018-12-04T06:20:40.443Z,996.83
2018-12-04T06:21:40.462Z,996.82
2018-12-04T06:22:40.486Z,996.84
2018-12-04T06:23:40.506Z,996.86
2018-12-04T06:24:40.523Z,996.97
2018-12-04T06:25:40.547Z,996.94
2018-12-04T06:26:40.562Z,996.96
2018-12-04T06:27:40.582Z,996.97
2018-12-04T06:28:40.601Z,997.02
2018-12-04T06:29:40.620Z,997.06
2018-12-04T06:30:40.641Z,997.04
2018-12-04T06:31:40.666Z,997.12
2018-12-04T06:32:40.685Z,997.16
2018-12-04T06:33:40.702Z,997.19
2018-12-04T06:34:40.721Z,997.2
2018-12-04T06:35:40.741Z,997.2
2018-12-04T06:36:40.760Z,997.17
2018-12-04T06:37:40.785Z,997.22
2018-12-04T06:38:40.802Z,997.27
2018-12-04T06:39:40.820Z,997.29
2018-12-04T06:40:40.840Z,997.34
2018-12-04T06:41:40.860Z,997.36
2018-12-04T06:42:40.884Z,997.37
2018-12-04T06:43:40.899Z,997.36
2018-12-04T06:44:46.603Z,997.43
2018-12-04T06:45:40.940Z,997.37
2018-12-04T06:46:40.959Z,997.45
2018-12-04T06:47:40.982Z,997.46
2018-12-04T06:48:41.006Z,997.48
2018-12-04T06:49:41.020Z,997.51
2018-12-04T06:50:41.036Z,997.58
2018-12-04T06:51:41.059Z,997.66
2018-12-04T06:52:41.086Z,997.68
2018-12-04T06:53:41.102Z,997.68
2018-12-04T06:54:41.118Z,997.75
2018-12-04T06:55:41.138Z,997.79
2018-12-04T06:56:41.158Z,997.77
2018-12-04T06:57:41.180Z,997.81
2018-12-04T06:58:41.197Z,997.82
2018-12-04T06:59:41.220Z,997.85
2018-12-04T07:00:41.241Z,997.89
2018-12-04T07:01:41.257Z,997.96
2018-12-04T07:02:41.277Z,998.01
2018-12-04T07:03:41.302Z,997.97
2018-12-04T07:04:41.323Z,998.02
2018-12-04T07:05:41.336Z,998.1
2018-12-04T07:06:41.355Z,998.13
2018-12-04T07:07:41.377Z,998.14
2018-12-04T07:08:41.397Z,998.16
2018-12-04T07:09:41.416Z,998.15
2018-12-04T07:10:41.436Z,998.18
2018-12-04T07:11:41.455Z,998.2
2018-12-04T07:12:41.474Z,998.25
2018-12-04T07:13:41.496Z,998.27
2018-12-04T07:14:41.514Z,998.25
2018-12-04T07:15:41.537Z,998.34
2018-12-04T07:16:41.554Z,998.35
2018-12-04T07:17:41.574Z,998.37
2018-12-04T07:18:41.594Z,998.4
2018-12-04T07:19:41.617Z,998.39
2018-12-04T07:20:41.631Z,998.38
2018-12-04T07:21:41.654Z,998.41
2018-12-04T07:22:41.672Z,998.44
2018-12-04T07:23:41.693Z,998.46
2018-12-04T07:24:41.713Z,998.46
2018-12-04T07:25:41.732Z,998.52
2018-12-04T07:26:41.751Z,998.55
2018-12-04T07:27:41.770Z,998.61
2018-12-04T07:28:41.795Z,998.6
2018-12-04T07:29:41.811Z,998.64
2018-12-04T07:30:41.830Z,998.65
2018-12-04T07:31:41.848Z,998.63
2018-12-04T07:32:41.869Z,998.67
2018-12-04T07:33:41.896Z,998.69
2018-12-04T07:34:41.908Z,998.73
2018-12-04T07:35:41.929Z,998.75
2018-12-04T07:36:41.952Z,998.79
2018-12-04T07:37:41.992Z,998.8
2018-12-04T07:38:41.988Z,998.87
2018-12-04T07:39:42.007Z,998.94
2018-12-04T07:40:42.025Z,998.93
2018-12-04T07:41:42.051Z,998.9
2018-12-04T07:42:42.065Z,998.89
2018-12-04T07:43:42.087Z,998.93
2018-12-04T07:44:42.107Z,998.93
2018-12-04T07:45:42.124Z,998.96
2018-12-04T07:46:42.149Z,998.96
2018-12-04T07:47:42.165Z,999
2018-12-04T07:48:42.185Z,998.99
2018-12-04T07:49:42.204Z,999.02
2018-12-04T07:50:42.224Z,999.07
2018-12-04T07:51:42.244Z,999.1
2018-12-04T07:52:42.267Z,999.1
2018-12-04T07:53:42.281Z,999.13
2018-12-04T07:54:42.302Z,999.17
2018-12-04T07:55:42.326Z,999.21
2018-12-04T07:56:42.340Z,999.22
2018-12-04T07:57:42.361Z,999.3
2018-12-04T07:58:42.381Z,999.27
2018-12-04T07:59:42.402Z,999.3
2018-12-04T08:00:42.418Z,999.36
2018-12-04T08:01:42.438Z,999.42
2018-12-04T08:02:42.463Z,999.42
2018-12-04T08:03:42.489Z,999.45
2018-12-04T08:04:42.496Z,999.45
2018-12-04T08:05:42.521Z,999.46
2018-12-04T08:06:42.537Z,999.46
2018-12-04T08:07:42.560Z,999.46
2018-12-04T08:08:42.576Z,999.46
2018-12-04T08:09:42.595Z,999.52
2018-12-04T08:10:42.615Z,999.51
2018-12-04T08:11:42.638Z,999.58
2018-12-04T08:12:42.659Z,999.54
2018-12-04T08:13:42.676Z,999.59
2018-12-04T08:14:42.692Z,999.59
2018-12-04T08:15:42.717Z,999.65
2018-12-04T08:16:42.737Z,999.7
2018-12-04T08:17:43.022Z,999.69
2018-12-04T08:18:42.771Z,999.72
2018-12-04T08:19:42.792Z,999.7
2018-12-04T08:20:42.810Z,999.73
2018-12-04T08:21:42.832Z,999.78
2018-12-04T08:22:42.854Z,999.85
2018-12-04T08:23:42.873Z,999.85
2018-12-04T08:24:42.889Z,999.88
2018-12-04T08:25:42.909Z,999.91
2018-12-04T08:26:42.928Z,999.96
2018-12-04T08:27:42.949Z,999.97
2018-12-04T08:28:42.968Z,1000.03
2018-12-04T08:29:42.991Z,1000.03
2018-12-04T08:30:43.010Z,1000.05
2018-12-04T08:31:43.026Z,1000.05
2018-12-04T08:32:43.050Z,1000.08
2018-12-04T08:33:43.068Z,1000.08
2018-12-04T08:34:43.084Z,1000.14
2018-12-04T08:35:43.105Z,1000.15
2018-12-04T08:36:43.127Z,1000.2
2018-12-04T08:37:43.147Z,1000.19
2018-12-04T08:38:43.163Z,1000.18
2018-12-04T08:39:43.183Z,1000.19
2018-12-04T08:40:43.202Z,1000.2
2018-12-04T08:41:43.222Z,1000.27
2018-12-04T08:42:43.242Z,1000.27
2018-12-04T08:43:43.264Z,1000.3
2018-12-04T08:44:43.284Z,1000.37
2018-12-04T08:45:43.300Z,1000.34
2018-12-04T08:46:43.320Z,1000.37
2018-12-04T08:47:43.340Z,1000.45
2018-12-04T08:48:43.364Z,1000.41
2018-12-04T08:49:43.379Z,1000.46
2018-12-04T08:50:43.404Z,1000.49
2018-12-04T08:51:43.420Z,1000.5
2018-12-04T08:52:43.439Z,1000.53
2018-12-04T08:53:43.459Z,1000.53
2018-12-04T08:54:43.479Z,1000.56
2018-12-04T08:55:43.497Z,1000.58
2018-12-04T08:56:43.516Z,1000.57
2018-12-04T08:57:43.536Z,1000.61
2018-12-04T08:58:43.555Z,1000.65
2018-12-04T08:59:43.577Z,1000.68
2018-12-04T09:00:43.596Z,1000.72
2018-12-04T09:01:43.619Z,1000.74
2018-12-04T09:02:43.636Z,1000.79
2018-12-04T09:03:43.655Z,1000.8
2018-12-04T09:04:43.672Z,1000.83
2018-12-04T09:05:43.699Z,1000.86
2018-12-04T09:06:43.721Z,1000.9
2018-12-04T09:07:43.738Z,1000.91
2018-12-04T09:08:43.776Z,1000.91
2018-12-04T09:09:43.777Z,1000.96
2018-12-04T09:10:43.794Z,1000.94
2018-12-04T09:11:43.812Z,1001.01
2018-12-04T09:12:43.837Z,1001.03
2018-12-04T09:13:43.853Z,1001.08
2018-12-04T09:14:43.870Z,1001.1
2018-12-04T09:15:43.894Z,1001.13
2018-12-04T09:16:43.912Z,1001.13
2018-12-04T09:17:43.931Z,1001.2
2018-12-04T09:18:43.954Z,1001.17
2018-12-04T09:19:43.971Z,1001.25
2018-12-04T09:20:44.042Z,1001.25
2018-12-04T09:21:44.017Z,1001.26
2018-12-04T09:22:44.030Z,1001.31
2018-12-04T09:23:44.082Z,1001.29
2018-12-04T09:24:44.084Z,1001.32
2018-12-04T09:25:44.221Z,1001.36
2018-12-04T09:26:44.108Z,1001.4
2018-12-04T09:27:44.187Z,1001.43
2018-12-04T09:28:44.150Z,1001.45
2018-12-04T09:29:44.184Z,1001.49
2018-12-04T09:30:44.187Z,1001.56
2018-12-04T09:31:44.205Z,1001.55
2018-12-04T09:32:44.228Z,1001.53
2018-12-04T09:33:44.323Z,1001.54
2018-12-04T09:34:44.269Z,1001.57
2018-12-04T09:35:44.284Z,1001.59
2018-12-04T09:36:44.303Z,1001.64
2018-12-04T09:37:44.323Z,1001.64
2018-12-04T09:38:44.346Z,1001.65
2018-12-04T09:39:44.366Z,1001.71
2018-12-04T09:40:44.387Z,1001.7
2018-12-04T09:41:44.407Z,1001.73
2018-12-04T09:42:44.421Z,1001.73
2018-12-04T09:43:44.442Z,1001.74
2018-12-04T09:44:44.464Z,1001.75
2018-12-04T09:45:44.482Z,1001.81
2018-12-04T09:46:44.501Z,1001.81
2018-12-04T09:47:44.520Z,1001.89
2018-12-04T09:48:44.540Z,1001.86
2018-12-04T09:49:44.560Z,1001.89
2018-12-04T09:50:44.579Z,1001.87
2018-12-04T09:51:44.598Z,1001.91
2018-12-04T09:52:44.622Z,1001.87
2018-12-04T09:53:44.642Z,1001.91
2018-12-04T09:54:44.656Z,1001.92
2018-12-04T09:55:44.676Z,1001.95
2018-12-04T09:56:44.698Z,1001.97
2018-12-04T09:57:44.716Z,1002
2018-12-04T09:58:44.739Z,1002.01
2018-12-04T09:59:44.755Z,1002.03
2018-12-04T10:00:44.774Z,1002.04
2018-12-04T10:01:44.795Z,1002.09
2018-12-04T10:02:44.816Z,1002.11
2018-12-04T10:03:44.835Z,1002.14
2018-12-04T10:04:44.853Z,1002.18
2018-12-04T10:05:44.873Z,1002.2
2018-12-04T10:06:44.892Z,1002.19
2018-12-04T10:07:44.912Z,1002.19
2018-12-04T10:08:44.932Z,1002.19
2018-12-04T10:09:44.951Z,1002.21
2018-12-04T10:10:44.971Z,1002.27
2018-12-04T10:11:44.991Z,1002.24
2018-12-04T10:12:45.040Z,1002.23
2018-12-04T10:13:45.029Z,1002.28
2018-12-04T10:14:45.053Z,1002.33
2018-12-04T10:15:45.069Z,1002.34
2018-12-04T10:16:45.088Z,1002.33
2018-12-04T10:17:45.112Z,1002.41
2018-12-04T10:18:47.623Z,1002.4
2018-12-04T10:19:45.147Z,1002.41
2018-12-04T10:20:45.167Z,1002.39
2018-12-04T10:21:45.187Z,1002.33
2018-12-04T10:22:45.207Z,1002.39
2018-12-04T10:23:45.230Z,1002.42
2018-12-04T10:24:45.250Z,1002.46
2018-12-04T10:25:45.270Z,1002.49
2018-12-04T10:26:45.284Z,1002.49
2018-12-04T10:27:45.305Z,1002.49
2018-12-04T10:28:45.329Z,1002.49
2018-12-04T10:29:45.348Z,1002.5
2018-12-04T10:30:45.369Z,1002.53
2018-12-04T10:31:45.388Z,1002.54
2018-12-04T10:32:45.407Z,1002.58
2018-12-04T10:33:45.425Z,1002.55
2018-12-04T10:34:45.443Z,1002.56
2018-12-04T10:35:45.467Z,1002.56
2018-12-04T10:36:45.484Z,1002.6
2018-12-04T10:37:45.502Z,1002.58
2018-12-04T10:38:45.522Z,1002.58
2018-12-04T10:39:45.549Z,1002.61
2018-12-04T10:40:45.563Z,1002.7
2018-12-04T10:41:45.582Z,1002.69
2018-12-04T10:42:45.603Z,1002.69
2018-12-04T10:43:45.626Z,1002.67
2018-12-04T10:44:45.642Z,1002.68
2018-12-04T10:45:45.665Z,1002.77
2018-12-04T10:46:45.681Z,1002.73
2018-12-04T10:47:45.702Z,1002.69
2018-12-04T10:48:45.720Z,1002.69
2018-12-04T10:49:45.741Z,1002.69
2018-12-04T10:50:45.761Z,1002.71
2018-12-04T10:51:45.781Z,1002.69
2018-12-04T10:52:45.802Z,1002.7
2018-12-04T10:53:45.821Z,1002.74
2018-12-04T10:54:45.845Z,1002.73
2018-12-04T10:55:45.860Z,1002.73
2018-12-04T10:56:45.882Z,1002.69
2018-12-04T10:57:45.904Z,1002.73
2018-12-04T10:58:45.925Z,1002.69
2018-12-04T10:59:45.940Z,1002.72
2018-12-04T11:00:45.961Z,1002.73
2018-12-04T11:01:45.979Z,1002.78
2018-12-04T11:02:45.999Z,1002.8
2018-12-04T11:03:46.023Z,1002.82
2018-12-04T11:04:46.042Z,1002.8
2018-12-04T11:05:46.059Z,1002.83
2018-12-04T11:06:46.082Z,1002.82
2018-12-04T11:07:46.101Z,1002.9
2018-12-04T11:08:46.125Z,1002.88
2018-12-04T11:09:46.144Z,1002.85
2018-12-04T11:10:46.164Z,1002.88
2018-12-04T11:11:46.177Z,1002.86
2018-12-04T11:12:46.197Z,1002.87
2018-12-04T11:13:46.216Z,1002.86
2018-12-04T11:14:46.236Z,1002.84
2018-12-04T11:15:46.266Z,1002.84
2018-12-04T11:16:46.289Z,1002.85
2018-12-04T11:17:46.297Z,1002.89
2018-12-04T11:18:46.316Z,1002.83
2018-12-04T11:19:46.346Z,1002.93
2018-12-04T11:20:46.357Z,1002.92
2018-12-04T11:21:46.377Z,1002.95
2018-12-04T11:22:46.399Z,1002.97
2018-12-04T11:23:46.417Z,1002.94
2018-12-04T11:24:46.436Z,1002.97
2018-12-04T11:25:46.456Z,1003.02
2018-12-04T11:26:46.476Z,1003.03
2018-12-04T11:27:46.497Z,1003.01
2018-12-04T11:28:46.513Z,1003.02
2018-12-04T11:29:46.535Z,1003.06
2018-12-04T11:30:46.554Z,1003.09
2018-12-04T11:31:46.579Z,1003.05
2018-12-04T11:32:46.594Z,1003.03
2018-12-04T11:33:46.622Z,1003.02
2018-12-04T11:34:46.633Z,1003.04
2018-12-04T11:35:46.656Z,1003.04
2018-12-04T11:36:46.674Z,1003.06
2018-12-04T11:37:46.694Z,1003.08
2018-12-04T11:38:46.714Z,1003.09
2018-12-04T11:39:46.732Z,1003.13
2018-12-04T11:40:46.753Z,1003.14
2018-12-04T11:41:46.772Z,1003.12
2018-12-04T11:42:46.793Z,1003.18
2018-12-04T11:43:46.811Z,1003.17
2018-12-04T11:44:46.835Z,1003.26
2018-12-04T11:45:46.852Z,1003.27
2018-12-04T11:46:46.871Z,1003.29
2018-12-04T11:47:46.899Z,1003.28
2018-12-04T11:48:46.911Z,1003.26
2018-12-04T11:49:46.931Z,1003.3
2018-12-04T11:50:46.950Z,1003.31
2018-12-04T11:51:46.971Z,1003.34
2018-12-04T11:52:46.991Z,1003.37
2018-12-04T11:53:47.011Z,1003.42
2018-12-04T11:54:47.030Z,1003.37
2018-12-04T11:55:47.095Z,1003.44
2018-12-04T11:56:47.070Z,1003.62
2018-12-04T11:57:47.093Z,1003.53
2018-12-04T11:58:47.110Z,1003.55
2018-12-04T11:59:47.129Z,1003.53
2018-12-04T12:00:47.149Z,1003.52
2018-12-04T12:01:47.171Z,1003.51
2018-12-04T12:02:47.187Z,1003.58
2018-12-04T12:03:47.208Z,1003.55
2018-12-04T12:04:47.232Z,1003.58
2018-12-04T12:05:47.248Z,1003.56
2018-12-04T12:06:47.272Z,1003.59
2018-12-04T12:07:47.288Z,1003.6
2018-12-04T12:08:47.306Z,1003.62
2018-12-04T12:09:47.328Z,1003.63
2018-12-04T12:10:47.350Z,1003.65
2018-12-04T12:11:47.372Z,1003.62
2018-12-04T12:12:47.388Z,1003.62
2018-12-04T12:13:47.405Z,1003.66
2018-12-04T12:14:47.427Z,1003.65
2018-12-04T12:15:47.450Z,1003.64
2018-12-04T12:16:47.469Z,1003.64
2018-12-04T12:17:47.486Z,1003.7
2018-12-04T12:18:47.506Z,1003.76
2018-12-04T12:19:47.525Z,1003.78
2018-12-04T12:20:47.548Z,1003.85
2018-12-04T12:21:47.564Z,1003.82
2018-12-04T12:22:47.585Z,1003.89
2018-12-04T12:23:47.605Z,1003.79